Artvin — 9HA2782 — position and weather

sailwx.info

Track history (hours):
 
Tides and Currents Weather Stations Pressure Air Temp Water Temp Dewpoint Dewpoint Depression Visibility Wind Speed Wind Dir Waves Ship Positions

Artvin

Last reported at 2016-Mar-29 06:22 UTC. Time now 2016-Jun-27 15:09 UTC.
Position N 36°51' W 075°49'.
Warning: this ship's position is months out of date.

Length 229 m; draft 14 m.

Type: Cargo ship. MMSI: 215678000.

Date/timePositionNaut miles runAvg speedWind from/ knotsBaromVisibWave heightAir tempDewpointWater temp
2016-Mar-29 06:22N 36°51' W 075°49'7 9.3
2016-Mar-29 05:33N 36°56' W 075°56'1110.0
2016-Mar-29 04:27N 36°59' W 076°10'8 9.2
2016-Mar-29 03:33N 36°58' W 076°20'4 0.2
2016-Mar-28 03:32N 36°57' W 076°25'1211.0
2016-Mar-28 02:29N 36°59' W 076°10'8 8.4
2016-Mar-28 01:32N 36°59' W 076°01'6512.4
2016-Mar-27 20:17N 38°04' W 076°13'5013.4
2016-Mar-27 16:34N 38°53' W 076°24'1513.4
2016-Mar-27 15:28N 39°07' W 076°24'1111.0
2016-Mar-27 14:30N 39°15' W 076°34'1 0.2
2016-Mar-27 11:07N 39°15' W 076°34'0 0.0
2016-Mar-27 07:10N 39°15' W 076°34'0 0.0
2016-Mar-27 06:14N 39°15' W 076°34'0 0.0
2016-Mar-27 05:31N 39°15' W 076°34'0 0.0
2016-Mar-27 03:31N 39°15' W 076°34'0 0.1
2016-Mar-26 22:29N 39°15' W 076°34'5 5.5
2016-Mar-26 21:33N 39°12' W 076°29'10 9.5
2016-Mar-26 20:33N 39°03' W 076°23'6 6.3
2016-Mar-26 19:33N 38°57' W 076°25'0 0.0
2016-Mar-26 18:33N 38°57' W 076°25'0 0.0
2016-Mar-26 17:24N 38°57' W 076°25'0 0.0
2016-Mar-26 16:27N 38°57' W 076°25'0 0.0
2016-Mar-26 15:09N 38°57' W 076°25'0 0.0
2016-Mar-26 14:33N 38°57' W 076°25'0 0.0
2016-Mar-26 13:33N 38°57' W 076°25'0 0.0
2016-Mar-26 12:33N 38°57' W 076°25'0 0.0
2016-Mar-26 11:33N 38°57' W 076°25'0 0.0
2016-Mar-26 10:21N 38°57' W 076°25'0 0.0
2016-Mar-26 09:33N 38°57' W 076°25'0 0.0
2016-Mar-26 07:30N 38°57' W 076°25'0 0.0
2016-Mar-26 06:33N 38°57' W 076°25'0 0.0
2016-Mar-26 04:15N 38°57' W 076°25'0 0.0
2016-Mar-26 03:33N 38°57' W 076°24'0 0.0
2016-Mar-26 02:33N 38°57' W 076°24'0 0.0
2016-Mar-26 01:33N 38°57' W 076°24'0 0.0
2016-Mar-26 00:30N 38°57' W 076°24'0 0.0
2016-Mar-25 23:33N 38°57' W 076°24'0 0.1
2016-Mar-25 22:33N 38°57' W 076°24'0 0.1
2016-Mar-25 21:27N 38°57' W 076°24'0 0.2
2016-Mar-25 20:33N 38°57' W 076°25'0 0.1
2016-Mar-25 19:33N 38°57' W 076°25'0 0.0
2016-Mar-25 18:33N 38°57' W 076°25'0 0.0
2016-Mar-25 17:33N 38°57' W 076°25'0 0.0
2016-Mar-25 16:33N 38°57' W 076°25'0 0.2
2016-Mar-25 15:30N 38°57' W 076°25'0 0.1
2016-Mar-25 14:33N 38°57' W 076°24'0 0.0
2016-Mar-25 13:33N 38°57' W 076°24'0 0.0
2016-Mar-25 12:33N 38°57' W 076°24'9 9.0
2016-Mar-25 11:34N 38°48' W 076°25'3714.9
2016-Mar-25 09:06N 38°12' W 076°16'7214.6
2016-Mar-25 04:11N 37°01' W 076°03'813.0
2016-Mar-25 03:34N 36°56' W 075°56'  
Track history (hours):
 
Tides and Currents Weather Stations Pressure Air Temp Water Temp Dewpoint Dewpoint Depression Visibility Wind Speed Wind Dir Waves Ship Positions

Artvin

Last reported at 2016-Mar-29 06:22 UTC. Time now 2016-Jun-27 15:09 UTC.
Position N 36°51' W 075°49'.
Warning: this ship's position is months out of date.

Length 229 m; draft 14 m.

Type: Cargo ship. MMSI: 215678000.

Date/timePositionNaut miles runAvg speedWind from/ knotsBaromVisibWave heightAir tempDewpointWater temp
2016-Mar-29 06:22N 36°51' W 075°49'7 9.3
2016-Mar-29 05:33N 36°56' W 075°56'1110.0
2016-Mar-29 04:27N 36°59' W 076°10'8 9.2
2016-Mar-29 03:33N 36°58' W 076°20'4 0.2
2016-Mar-28 03:32N 36°57' W 076°25'1211.0
2016-Mar-28 02:29N 36°59' W 076°10'8 8.4
2016-Mar-28 01:32N 36°59' W 076°01'6512.4
2016-Mar-27 20:17N 38°04' W 076°13'5013.4
2016-Mar-27 16:34N 38°53' W 076°24'1513.4
2016-Mar-27 15:28N 39°07' W 076°24'1111.0
2016-Mar-27 14:30N 39°15' W 076°34'1 0.2
2016-Mar-27 11:07N 39°15' W 076°34'0 0.0
2016-Mar-27 07:10N 39°15' W 076°34'0 0.0
2016-Mar-27 06:14N 39°15' W 076°34'0 0.0
2016-Mar-27 05:31N 39°15' W 076°34'0 0.0
2016-Mar-27 03:31N 39°15' W 076°34'0 0.1
2016-Mar-26 22:29N 39°15' W 076°34'5 5.5
2016-Mar-26 21:33N 39°12' W 076°29'10 9.5
2016-Mar-26 20:33N 39°03' W 076°23'6 6.3
2016-Mar-26 19:33N 38°57' W 076°25'0 0.0
2016-Mar-26 18:33N 38°57' W 076°25'0 0.0
2016-Mar-26 17:24N 38°57' W 076°25'0 0.0
2016-Mar-26 16:27N 38°57' W 076°25'0 0.0
2016-Mar-26 15:09N 38°57' W 076°25'0 0.0
2016-Mar-26 14:33N 38°57' W 076°25'0 0.0
2016-Mar-26 13:33N 38°57' W 076°25'0 0.0
2016-Mar-26 12:33N 38°57' W 076°25'0 0.0
2016-Mar-26 11:33N 38°57' W 076°25'0 0.0
2016-Mar-26 10:21N 38°57' W 076°25'0 0.0
2016-Mar-26 09:33N 38°57' W 076°25'0 0.0
2016-Mar-26 07:30N 38°57' W 076°25'0 0.0
2016-Mar-26 06:33N 38°57' W 076°25'0 0.0
2016-Mar-26 04:15N 38°57' W 076°25'0 0.0
2016-Mar-26 03:33N 38°57' W 076°24'0 0.0
2016-Mar-26 02:33N 38°57' W 076°24'0 0.0
2016-Mar-26 01:33N 38°57' W 076°24'0 0.0
2016-Mar-26 00:30N 38°57' W 076°24'0 0.0
2016-Mar-25 23:33N 38°57' W 076°24'0 0.1
2016-Mar-25 22:33N 38°57' W 076°24'0 0.1
2016-Mar-25 21:27N 38°57' W 076°24'0 0.2
2016-Mar-25 20:33N 38°57' W 076°25'0 0.1
2016-Mar-25 19:33N 38°57' W 076°25'0 0.0
2016-Mar-25 18:33N 38°57' W 076°25'0 0.0
2016-Mar-25 17:33N 38°57' W 076°25'0 0.0
2016-Mar-25 16:33N 38°57' W 076°25'0 0.2
2016-Mar-25 15:30N 38°57' W 076°25'0 0.1
2016-Mar-25 14:33N 38°57' W 076°24'0 0.0
2016-Mar-25 13:33N 38°57' W 076°24'0 0.0
2016-Mar-25 12:33N 38°57' W 076°24'9 9.0
2016-Mar-25 11:34N 38°48' W 076°25'3714.9
2016-Mar-25 09:06N 38°12' W 076°16'7214.6
2016-Mar-25 04:11N 37°01' W 076°03'813.0
2016-Mar-25 03:34N 36°56' W 075°56'  

Dump ship's entire track history